createdAt,value
2022-08-05T00:02:07.895Z,1.80
2022-08-05T00:04:43.735Z,2.20
2022-08-05T00:07:21.782Z,1.98
2022-08-05T00:10:10.009Z,2.15
2022-08-05T00:12:56.093Z,2.08
2022-08-05T00:15:57.615Z,1.98
2022-08-05T00:18:22.791Z,2.08
2022-08-05T00:20:56.421Z,1.80
2022-08-05T00:23:44.548Z,2.33
2022-08-05T00:26:20.417Z,2.10
2022-08-05T00:28:52.817Z,2.03
2022-08-05T00:31:53.571Z,2.08
2022-08-05T00:34:55.494Z,1.95
2022-08-05T00:37:14.226Z,1.92
2022-08-05T00:39:58.625Z,2.00
2022-08-05T00:42:37.902Z,2.17
2022-08-05T00:45:13.428Z,2.05
2022-08-05T00:47:56.509Z,1.90
2022-08-05T00:50:29.766Z,1.75
2022-08-05T00:53:02.401Z,1.90
2022-08-05T00:55:42.915Z,2.13
2022-08-05T00:58:17.539Z,1.80
2022-08-05T01:00:51.044Z,1.98
2022-08-05T01:03:24.654Z,2.00
2022-08-05T01:08:47.218Z,1.90
2022-08-05T01:11:36.872Z,2.00
2022-08-05T01:14:27.738Z,2.05
2022-08-05T01:17:05.816Z,2.00
2022-08-05T01:20:01.275Z,1.90
2022-08-05T01:23:15.196Z,1.77
2022-08-05T01:26:02.888Z,2.05
2022-08-05T01:29:05.052Z,1.80
2022-08-05T01:34:26.781Z,1.70
2022-08-05T01:37:09.498Z,1.70
2022-08-05T01:39:54.988Z,1.40
2022-08-05T01:42:32.824Z,1.92
2022-08-05T01:45:08.288Z,2.10
2022-08-05T01:47:43.328Z,1.77
2022-08-05T01:50:28.785Z,1.90
2022-08-05T01:53:06.776Z,1.75
2022-08-05T01:55:42.233Z,1.80
2022-08-05T01:58:16.555Z,2.15
2022-08-05T02:00:53.964Z,1.92
2022-08-05T02:03:39.011Z,1.75
2022-08-05T02:06:37.523Z,1.90
2022-08-05T02:09:05.746Z,1.80
2022-08-05T02:11:56.991Z,1.98
2022-08-05T02:14:44.786Z,2.22
2022-08-05T02:18:33.259Z,1.80
2022-08-05T02:20:24.813Z,1.95
2022-08-05T02:23:08.704Z,2.10
2022-08-05T02:25:49.311Z,1.88
2022-08-05T02:28:32.975Z,2.00
2022-08-05T02:31:14.675Z,2.42
2022-08-05T02:33:58.365Z,2.00
2022-08-05T02:36:32.528Z,2.20
2022-08-05T02:39:08.095Z,2.03
2022-08-05T02:41:57.606Z,2.35
2022-08-05T02:44:35.000Z,2.00
2022-08-05T02:47:10.102Z,1.80
2022-08-05T02:49:44.444Z,2.28
2022-08-05T02:52:30.132Z,2.05
2022-08-05T02:55:10.711Z,2.10
2022-08-05T02:58:09.950Z,2.10
2022-08-05T03:00:38.576Z,2.08
2022-08-05T03:03:16.781Z,2.08
2022-08-05T03:06:54.061Z,1.83
2022-08-05T03:08:43.412Z,1.95
2022-08-05T03:11:54.330Z,2.20
2022-08-05T03:14:13.792Z,2.08
2022-08-05T03:16:46.858Z,2.20
2022-08-05T03:19:34.121Z,2.22
2022-08-05T03:22:16.243Z,1.90
2022-08-05T03:24:52.129Z,2.00
2022-08-05T03:27:29.773Z,2.00
2022-08-05T03:30:12.265Z,1.98
2022-08-05T03:32:44.134Z,2.00
2022-08-05T03:37:50.671Z,1.70
2022-08-05T03:40:31.938Z,2.03
2022-08-05T03:43:58.893Z,2.10
2022-08-05T03:45:58.571Z,2.03
2022-08-05T03:48:35.693Z,2.00
2022-08-05T03:52:49.230Z,2.25
2022-08-05T03:55:52.674Z,2.10
2022-08-05T03:57:41.835Z,2.15
2022-08-05T04:00:16.654Z,2.08
2022-08-05T04:02:58.019Z,1.90
2022-08-05T04:08:29.628Z,2.33
2022-08-05T04:11:05.161Z,1.70
2022-08-05T04:13:50.102Z,2.03
2022-08-05T04:16:25.186Z,1.92
2022-08-05T04:19:10.613Z,2.20
2022-08-05T04:22:08.614Z,2.30
2022-08-05T04:24:35.218Z,1.95
2022-08-05T04:27:07.129Z,1.85
2022-08-05T04:29:40.244Z,2.17
2022-08-05T04:32:12.073Z,2.30
2022-08-05T04:34:44.277Z,1.90
2022-08-05T04:37:16.707Z,2.20
2022-08-05T04:39:52.669Z,2.55
2022-08-05T04:42:25.474Z,2.20
2022-08-05T04:44:57.894Z,2.45
2022-08-05T04:47:38.551Z,2.50
2022-08-05T04:50:15.217Z,2.22
2022-08-05T04:53:08.627Z,2.38
2022-08-05T04:56:05.079Z,2.25
2022-08-05T04:58:33.877Z,2.33
2022-08-05T05:01:06.442Z,2.28
2022-08-05T05:03:42.065Z,2.00
2022-08-05T05:06:36.528Z,2.30
2022-08-05T05:09:07.054Z,2.25
2022-08-05T05:11:48.569Z,2.10
2022-08-05T05:14:32.219Z,2.08
2022-08-05T05:17:07.342Z,2.53
2022-08-05T05:19:44.235Z,2.22
2022-08-05T05:22:24.433Z,2.20
2022-08-05T05:25:00.273Z,2.40
2022-08-05T05:27:41.579Z,2.20
2022-08-05T05:30:30.991Z,2.15
2022-08-05T05:33:16.286Z,2.10
2022-08-05T05:35:49.290Z,2.33
2022-08-05T05:40:58.972Z,2.20
2022-08-05T05:43:57.548Z,2.38
2022-08-05T05:46:23.308Z,2.10
2022-08-05T05:48:55.760Z,2.03
2022-08-05T05:51:27.917Z,2.30
2022-08-05T05:54:00.494Z,2.08
2022-08-05T05:59:08.020Z,1.92
2022-08-05T06:01:41.404Z,2.20
2022-08-05T06:04:30.182Z,2.30
2022-08-05T06:09:51.349Z,2.00
2022-08-05T06:12:27.197Z,2.20
2022-08-05T06:15:02.212Z,1.92
2022-08-05T06:17:53.558Z,2.40
2022-08-05T06:23:00.669Z,1.95
2022-08-05T06:26:13.831Z,1.92
2022-08-05T06:28:29.046Z,2.45
2022-08-05T06:31:01.316Z,1.83
2022-08-05T06:36:53.566Z,1.95
2022-08-05T06:39:28.169Z,2.00
2022-08-05T06:42:04.130Z,2.00
2022-08-05T06:44:36.660Z,1.73
2022-08-05T06:48:12.019Z,1.98
2022-08-05T06:50:04.975Z,2.00
2022-08-05T06:52:40.299Z,1.70
2022-08-05T06:55:12.585Z,1.75
2022-08-05T06:57:58.098Z,1.90
2022-08-05T07:00:39.558Z,2.20
2022-08-05T07:03:14.534Z,2.05
2022-08-05T07:05:48.696Z,1.70
2022-08-05T07:08:22.855Z,1.88
2022-08-05T07:10:57.300Z,1.80
2022-08-05T07:18:01.906Z,1.88
2022-08-05T07:22:34.660Z,1.77
2022-08-05T07:25:23.514Z,2.10
2022-08-05T07:28:05.822Z,1.70
2022-08-05T07:30:40.427Z,2.08
2022-08-05T07:33:16.879Z,2.00
2022-08-05T07:36:03.940Z,2.05
2022-08-05T07:38:43.340Z,1.98
2022-08-05T07:42:07.173Z,1.67
2022-08-05T07:44:18.718Z,1.77
2022-08-05T07:46:51.419Z,1.85
2022-08-05T07:49:23.744Z,1.80
2022-08-05T07:51:55.565Z,1.80
2022-08-05T07:54:30.604Z,2.20
2022-08-05T07:57:17.567Z,1.92
2022-08-05T07:59:57.954Z,1.73
2022-08-05T08:02:31.009Z,1.38
2022-08-05T08:05:22.263Z,1.27
2022-08-05T08:08:00.077Z,1.30
2022-08-05T08:10:32.956Z,1.27
2022-08-05T08:13:05.115Z,1.08
2022-08-05T08:16:35.916Z,1.20
2022-08-05T08:18:30.320Z,1.20
2022-08-05T08:21:04.024Z,1.50
2022-08-05T08:24:02.399Z,1.00
2022-08-05T08:29:21.746Z,1.13
2022-08-05T08:31:57.747Z,1.60
2022-08-05T08:34:29.899Z,1.15
2022-08-05T08:37:05.467Z,1.00
2022-08-05T08:39:38.179Z,1.10
2022-08-05T08:42:34.127Z,1.40
2022-08-05T08:45:23.609Z,1.42
2022-08-05T08:48:07.544Z,1.20
2022-08-05T08:51:22.493Z,1.15
2022-08-05T08:53:48.921Z,1.30
2022-08-05T08:56:22.188Z,1.17
2022-08-05T08:58:54.973Z,1.10
2022-08-05T09:01:31.568Z,1.20
2022-08-05T09:04:04.539Z,1.40
2022-08-05T09:06:42.780Z,1.30
2022-08-05T09:09:16.601Z,1.20
2022-08-05T09:11:52.612Z,1.27
2022-08-05T09:14:56.457Z,1.38
2022-08-05T09:17:42.845Z,1.50
2022-08-05T09:20:13.016Z,1.17
2022-08-05T09:23:19.108Z,1.50
2022-08-05T09:26:06.552Z,1.08
2022-08-05T09:28:41.128Z,1.35
2022-08-05T09:31:22.832Z,1.33
2022-08-05T09:34:11.914Z,1.40
2022-08-05T09:36:55.574Z,1.30
2022-08-05T09:39:44.980Z,1.15
2022-08-05T09:42:24.039Z,1.33
2022-08-05T09:46:04.670Z,1.40
2022-08-05T09:47:59.599Z,1.27
2022-08-05T09:50:44.182Z,1.50
2022-08-05T09:53:25.946Z,1.40
2022-08-05T09:56:13.351Z,1.67
2022-08-05T09:58:57.567Z,1.40
2022-08-05T10:01:34.072Z,1.50
2022-08-05T10:04:16.209Z,1.50
2022-08-05T10:06:59.639Z,1.40
2022-08-05T10:09:44.979Z,1.30
2022-08-05T10:12:18.561Z,1.40
2022-08-05T10:15:28.422Z,1.48
2022-08-05T10:18:16.951Z,1.48
2022-08-05T10:20:58.475Z,1.50
2022-08-05T10:23:55.517Z,1.88
2022-08-05T10:26:56.378Z,1.20
2022-08-05T10:30:07.014Z,1.40
2022-08-05T10:32:53.400Z,1.67
2022-08-05T10:35:24.166Z,1.60
2022-08-05T10:38:13.722Z,1.40
2022-08-05T10:40:57.850Z,1.50
2022-08-05T10:43:42.733Z,1.58
2022-08-05T10:46:17.630Z,1.60
2022-08-05T10:48:57.977Z,1.70
2022-08-05T10:52:00.488Z,1.70
2022-08-05T10:57:44.704Z,1.88
2022-08-05T11:00:23.377Z,1.55
2022-08-05T11:03:25.226Z,1.70
2022-08-05T11:06:15.127Z,1.40
2022-08-05T11:11:52.684Z,1.60
2022-08-05T11:14:57.736Z,1.50
2022-08-05T11:17:59.162Z,1.60
2022-08-05T11:20:43.666Z,1.70
2022-08-05T11:23:26.187Z,1.80
2022-08-05T11:26:12.234Z,1.48
2022-08-05T11:28:47.025Z,1.50
2022-08-05T11:31:58.458Z,1.70
2022-08-05T11:34:14.782Z,1.65
2022-08-05T11:36:52.943Z,1.52
2022-08-05T11:39:49.303Z,1.50
2022-08-05T11:42:28.880Z,1.75
2022-08-05T11:45:06.075Z,1.52
2022-08-05T11:47:56.143Z,1.55
2022-08-05T11:50:29.184Z,1.65
2022-08-05T11:53:06.328Z,1.65
2022-08-05T11:56:01.291Z,1.95
2022-08-05T12:01:11.932Z,1.70
2022-08-05T12:03:55.740Z,1.60
2022-08-05T12:06:29.455Z,1.60
2022-08-05T12:09:06.506Z,1.40
2022-08-05T12:11:40.134Z,1.35
2022-08-05T12:14:14.884Z,1.60
2022-08-05T12:16:49.008Z,1.80
2022-08-05T12:20:17.158Z,1.50
2022-08-05T12:22:20.265Z,1.85
2022-08-05T12:24:52.954Z,1.48
2022-08-05T12:27:33.370Z,1.63
2022-08-05T12:30:10.587Z,2.00
2022-08-05T12:32:54.242Z,1.80
2022-08-05T12:35:39.560Z,1.70
2022-08-05T12:38:12.542Z,1.70
2022-08-05T12:40:48.318Z,1.73
2022-08-05T12:43:22.437Z,1.73
2022-08-05T12:45:57.033Z,1.60
2022-08-05T12:48:38.854Z,1.77
2022-08-05T12:52:10.735Z,2.13
2022-08-05T12:54:16.631Z,2.03
2022-08-05T12:56:51.723Z,1.80
2022-08-05T12:59:46.736Z,1.60
2022-08-05T13:02:27.284Z,1.85
2022-08-05T13:05:07.281Z,1.70
2022-08-05T13:07:59.904Z,1.65
2022-08-05T13:10:33.421Z,2.00
2022-08-05T13:13:08.820Z,2.00
2022-08-05T13:15:50.981Z,1.98
2022-08-05T13:18:24.103Z,1.58
2022-08-05T13:20:56.890Z,1.70
2022-08-05T13:23:28.763Z,1.83
2022-08-05T13:26:03.963Z,1.80
2022-08-05T13:28:43.949Z,1.55
2022-08-05T13:31:16.878Z,1.80
2022-08-05T13:34:24.912Z,1.70
2022-08-05T13:36:58.009Z,2.10
2022-08-05T13:40:13.378Z,1.70
2022-08-05T13:42:23.880Z,2.00
2022-08-05T13:44:57.984Z,2.00
2022-08-05T13:47:36.078Z,1.83
2022-08-05T13:50:23.483Z,2.00
2022-08-05T13:52:56.323Z,1.90
2022-08-05T13:55:41.101Z,2.00
2022-08-05T13:58:14.795Z,1.75
2022-08-05T14:01:04.566Z,1.83
2022-08-05T14:03:36.390Z,1.90
2022-08-05T14:06:26.373Z,2.00
2022-08-05T14:08:59.405Z,2.20
2022-08-05T14:11:32.356Z,1.90
2022-08-05T14:14:26.065Z,1.70
2022-08-05T14:17:06.176Z,1.80
2022-08-05T14:19:53.368Z,1.75
2022-08-05T14:22:30.199Z,1.70
2022-08-05T14:25:06.376Z,1.75
2022-08-05T14:27:52.025Z,2.00
2022-08-05T14:30:26.595Z,2.40
2022-08-05T14:33:00.584Z,1.83
2022-08-05T14:35:37.507Z,1.92
2022-08-05T14:38:32.341Z,1.92
2022-08-05T14:41:08.535Z,2.20
2022-08-05T14:44:00.167Z,1.80
2022-08-05T14:46:35.156Z,2.00
2022-08-05T14:49:08.575Z,1.88
2022-08-05T14:51:42.979Z,1.92
2022-08-05T14:54:28.065Z,2.20
2022-08-05T14:57:05.386Z,2.00
2022-08-05T14:59:42.108Z,1.90
2022-08-05T15:02:14.838Z,2.35
2022-08-05T15:04:49.948Z,2.00
2022-08-05T15:08:12.140Z,2.13
2022-08-05T15:10:15.091Z,2.17
2022-08-05T15:13:00.158Z,2.67
2022-08-05T15:15:55.553Z,2.55
2022-08-05T15:18:25.789Z,2.47
2022-08-05T15:20:58.575Z,2.53
2022-08-05T15:23:41.034Z,2.45
2022-08-05T15:26:13.032Z,2.70
2022-08-05T15:28:45.790Z,2.40
2022-08-05T15:31:23.795Z,2.35
2022-08-05T15:34:31.506Z,2.65
2022-08-05T15:37:02.370Z,2.30
2022-08-05T15:41:00.646Z,2.58
2022-08-05T15:42:53.952Z,2.40
2022-08-05T15:45:37.976Z,2.55
2022-08-05T15:48:14.042Z,2.22
2022-08-05T15:50:47.312Z,2.60
2022-08-05T15:53:20.145Z,2.40
2022-08-05T15:56:04.239Z,2.47
2022-08-05T15:58:37.272Z,2.30
2022-08-05T16:01:17.427Z,2.50
2022-08-05T16:03:51.133Z,2.35
2022-08-05T16:06:24.075Z,2.25
2022-08-05T16:08:55.903Z,2.33
2022-08-05T16:11:40.198Z,2.75
2022-08-05T16:14:17.518Z,2.25
2022-08-05T16:16:49.935Z,2.47
2022-08-05T16:20:02.758Z,2.40
2022-08-05T16:22:15.480Z,2.42
2022-08-05T16:24:51.244Z,2.58
2022-08-05T16:27:47.100Z,2.42
2022-08-05T16:30:26.270Z,2.30
2022-08-05T16:33:01.617Z,2.53
2022-08-05T16:35:42.485Z,2.75
2022-08-05T16:38:25.622Z,2.45
2022-08-05T16:41:29.714Z,2.33
2022-08-05T16:43:56.176Z,2.30
2022-08-05T16:46:29.183Z,2.63
2022-08-05T16:49:01.663Z,2.58
2022-08-05T16:51:42.635Z,2.28
2022-08-05T16:54:28.987Z,2.53
2022-08-05T16:57:04.280Z,1.83
2022-08-05T17:00:03.118Z,2.40
2022-08-05T17:02:38.077Z,2.40
2022-08-05T17:05:11.428Z,2.28
2022-08-05T17:07:44.544Z,2.20
2022-08-05T17:10:26.525Z,2.35
2022-08-05T17:13:03.545Z,2.05
2022-08-05T17:15:47.842Z,2.20
2022-08-05T17:18:22.314Z,2.47
2022-08-05T17:20:54.394Z,2.10
2022-08-05T17:24:05.035Z,1.92
2022-08-05T17:26:19.391Z,2.30
2022-08-05T17:28:53.080Z,2.00
2022-08-05T17:31:41.261Z,2.10
2022-08-05T17:34:18.225Z,2.17
2022-08-05T17:36:50.906Z,2.10
2022-08-05T17:39:24.394Z,2.67
2022-08-05T17:42:28.495Z,1.80
2022-08-05T17:44:58.448Z,1.85
2022-08-05T17:47:32.467Z,2.10
2022-08-05T17:50:10.925Z,2.00
2022-08-05T17:52:53.344Z,1.88
2022-08-05T17:55:37.791Z,2.50
2022-08-05T17:58:14.396Z,2.50
2022-08-05T18:00:50.743Z,1.90
2022-08-05T18:03:56.071Z,1.90
2022-08-05T18:06:17.977Z,1.77
2022-08-05T18:09:03.731Z,1.70
2022-08-05T18:11:36.317Z,1.67
2022-08-05T18:16:52.941Z,2.17
2022-08-05T18:19:26.785Z,2.10
2022-08-05T18:22:08.961Z,1.77
2022-08-05T18:24:43.734Z,1.52
2022-08-05T18:27:18.477Z,2.10
2022-08-05T18:29:54.752Z,1.92
2022-08-05T18:32:27.687Z,1.80
2022-08-05T18:35:01.287Z,1.98
2022-08-05T18:37:34.381Z,2.28
2022-08-05T18:40:31.422Z,2.10
2022-08-05T18:43:08.953Z,1.98
2022-08-05T18:45:48.855Z,2.00
2022-08-05T18:48:30.636Z,3.90
2022-08-05T18:52:05.826Z,1.75
2022-08-05T18:54:16.625Z,4.32
2022-08-05T18:56:51.293Z,2.08
2022-08-05T18:59:43.382Z,1.90
2022-08-05T19:02:27.217Z,1.90
2022-08-05T19:06:05.563Z,1.90
2022-08-05T19:07:57.327Z,2.15
2022-08-05T19:10:30.583Z,1.90
2022-08-05T19:13:03.320Z,1.70
2022-08-05T19:15:59.713Z,1.83
2022-08-05T19:18:29.035Z,1.80
2022-08-05T19:21:01.527Z,1.65
2022-08-05T19:24:07.773Z,1.85
2022-08-05T19:26:30.161Z,2.05
2022-08-05T19:29:02.915Z,1.60
2022-08-05T19:31:44.603Z,1.80
2022-08-05T19:34:23.381Z,1.67
2022-08-05T19:36:56.138Z,1.88
2022-08-05T19:39:30.433Z,1.70
2022-08-05T19:42:07.671Z,2.17
2022-08-05T19:44:45.322Z,1.70
2022-08-05T19:47:19.791Z,1.80
2022-08-05T19:49:52.643Z,1.90
2022-08-05T19:52:31.604Z,1.73
2022-08-05T19:55:07.139Z,1.73
2022-08-05T19:58:19.425Z,1.90
2022-08-05T20:00:51.516Z,1.73
2022-08-05T20:03:24.197Z,1.90
2022-08-05T20:05:58.934Z,1.88
2022-08-05T20:08:48.873Z,1.98
2022-08-05T20:11:24.119Z,1.58
2022-08-05T20:14:11.974Z,1.52
2022-08-05T20:16:46.579Z,1.90
2022-08-05T20:19:21.045Z,1.85
2022-08-05T20:21:55.674Z,1.80
2022-08-05T20:24:29.369Z,1.90
2022-08-05T20:27:02.141Z,2.28
2022-08-05T20:29:34.423Z,1.98
2022-08-05T20:32:07.613Z,2.17
2022-08-05T20:34:42.035Z,2.42
2022-08-05T20:37:18.158Z,1.90
2022-08-05T20:40:07.904Z,2.40
2022-08-05T20:42:40.702Z,2.45
2022-08-05T20:45:15.941Z,2.47
2022-08-05T20:47:52.963Z,2.55
2022-08-05T20:50:26.257Z,2.70
2022-08-05T20:52:58.959Z,3.03
2022-08-05T20:56:07.739Z,3.25
2022-08-05T20:58:24.262Z,3.42
2022-08-05T21:01:01.732Z,3.08
2022-08-05T21:03:35.157Z,3.13
2022-08-05T21:06:23.141Z,3.40
2022-08-05T21:09:00.809Z,3.15
2022-08-05T21:12:07.464Z,2.97
2022-08-05T21:14:26.558Z,3.30
2022-08-05T21:16:59.256Z,2.65
2022-08-05T21:19:47.122Z,3.40
2022-08-05T21:22:23.937Z,3.28
2022-08-05T21:24:56.831Z,2.88
2022-08-05T21:27:28.984Z,2.85
2022-08-05T21:32:49.510Z,3.10
2022-08-05T21:35:30.341Z,2.58
2022-08-05T21:38:16.610Z,3.22
2022-08-05T21:40:49.295Z,2.90
2022-08-05T21:43:24.825Z,2.95
2022-08-05T21:46:00.441Z,3.85
2022-08-05T21:48:32.998Z,2.63
2022-08-05T21:52:15.665Z,2.80
2022-08-05T21:54:03.975Z,2.20
2022-08-05T21:56:36.303Z,3.03
2022-08-05T21:59:23.845Z,2.40
2022-08-05T22:01:57.358Z,2.22
2022-08-05T22:09:45.814Z,2.17
2022-08-05T22:12:18.771Z,2.20
2022-08-05T22:14:59.279Z,2.13
2022-08-05T22:17:31.748Z,2.13
2022-08-05T22:20:14.877Z,1.90
2022-08-05T22:23:16.854Z,2.00
2022-08-05T22:26:10.150Z,2.20
2022-08-05T22:28:43.273Z,2.10
2022-08-05T22:33:57.489Z,2.10
2022-08-05T22:36:33.848Z,2.10
2022-08-05T22:39:10.250Z,2.50
2022-08-05T22:42:09.517Z,2.10
2022-08-05T22:44:36.548Z,1.98
2022-08-05T22:50:21.509Z,2.58
2022-08-05T22:52:39.502Z,2.30
2022-08-05T22:55:18.886Z,2.40
2022-08-05T22:57:54.022Z,2.40
2022-08-05T23:00:26.862Z,2.53
2022-08-05T23:03:00.038Z,2.67
2022-08-05T23:05:36.338Z,2.30
2022-08-05T23:08:12.771Z,2.33
2022-08-05T23:10:46.085Z,2.35
2022-08-05T23:13:18.363Z,2.70
2022-08-05T23:15:52.248Z,2.45
2022-08-05T23:20:56.697Z,2.78
2022-08-05T23:23:30.154Z,2.60
2022-08-05T23:26:06.739Z,2.63
2022-08-05T23:28:38.810Z,2.38
2022-08-05T23:31:17.930Z,2.65
2022-08-05T23:34:03.932Z,2.58
2022-08-05T23:36:41.548Z,2.40
2022-08-05T23:39:31.996Z,2.28
2022-08-05T23:42:14.406Z,2.95
2022-08-05T23:45:02.490Z,2.50
2022-08-05T23:47:34.932Z,2.50
2022-08-05T23:50:20.944Z,2.65
2022-08-05T23:52:54.529Z,2.22
2022-08-05T23:55:30.957Z,2.45
2022-08-05T23:58:03.920Z,2.00
